Time;durP1;ratioP1;P1;durP2;ratioP2;P2;SDS_P1;SDS_P2;PMS_P1;PMS_P2;Temp;Humidity;BMP_temperature;BMP_pressure;BME280_temperature;BME280_humidity;BME280_pressure;Samples;Min_cycle;Max_cycle;Signal;HPM_P1;HPM_P2
2024/01/30 00:00:24;;;;;;;20.25;10.52;;;5.90;99.90;;;;;;5055598;28;20176;-69
2024/01/30 00:02:51;;;;;;;19.88;10.95;;;5.90;99.90;;;;;;5059781;28;20032;-71
2024/01/30 00:05:21;;;;;;;;;;;5.90;99.90;;;;;;5043184;28;20057;-77
2024/01/30 00:07:51;;;;;;;20.27;10.93;;;6.00;99.90;;;;;;5046127;28;20100;-69
2024/01/30 00:10:20;;;;;;;19.40;10.68;;;6.00;99.90;;;;;;5042829;28;20052;-69
2024/01/30 00:12:46;;;;;;;19.15;10.75;;;6.10;99.90;;;;;;5053417;28;20090;-69
2024/01/30 00:15:12;;;;;;;19.30;11.48;;;6.10;99.90;;;;;;5056755;28;20041;-70
2024/01/30 00:17:37;;;;;;;24.23;11.97;;;6.20;99.90;;;;;;5043623;28;20041;-70
2024/01/30 00:20:05;;;;;;;23.57;11.87;;;6.20;99.90;;;;;;5056952;28;20032;-69
2024/01/30 00:22:34;;;;;;;21.98;11.65;;;6.20;99.90;;;;;;5038489;28;20095;-69
2024/01/30 00:25:00;;;;;;;21.95;11.30;;;6.20;99.90;;;;;;5061582;28;20093;-69
2024/01/30 00:27:29;;;;;;;18.80;10.52;;;6.20;99.90;;;;;;5038149;28;20052;-69
2024/01/30 00:29:54;;;;;;;21.70;11.50;;;6.20;99.90;;;;;;5056531;28;20123;-68
2024/01/30 00:32:20;;;;;;;22.47;11.50;;;6.20;99.90;;;;;;5045940;28;20476;-69
2024/01/30 00:34:46;;;;;;;21.27;11.27;;;6.20;99.90;;;;;;5053809;28;20185;-69
2024/01/30 00:37:11;;;;;;;19.73;11.17;;;6.20;99.90;;;;;;5057895;28;20048;-69
2024/01/30 00:39:37;;;;;;;25.93;12.67;;;6.30;99.90;;;;;;5057409;28;20040;-69
2024/01/30 00:42:03;;;;;;;19.20;10.77;;;6.30;99.90;;;;;;5052985;28;20032;-69
2024/01/30 00:44:28;;;;;;;21.20;10.90;;;6.20;99.90;;;;;;5059262;28;20060;-69
2024/01/30 00:46:54;;;;;;;21.37;11.40;;;6.20;99.90;;;;;;5057722;28;20489;-69
2024/01/30 00:49:20;;;;;;;22.40;11.93;;;6.20;99.90;;;;;;5065212;28;20127;-69
2024/01/30 00:51:46;;;;;;;24.70;11.17;;;6.20;99.90;;;;;;5064061;28;20506;-69
2024/01/30 00:54:15;;;;;;;19.83;10.40;;;6.20;99.90;;;;;;5047001;28;20438;-69
2024/01/30 00:56:40;;;;;;;18.60;11.57;;;6.20;99.90;;;;;;5050729;28;20049;-69
2024/01/30 00:59:06;;;;;;;19.73;10.30;;;6.20;99.90;;;;;;5066164;28;20058;-69
2024/01/30 01:01:32;;;;;;;19.93;11.43;;;6.20;99.90;;;;;;5067444;28;20068;-69
2024/01/30 01:04:00;;;;;;;18.83;11.03;;;6.20;99.90;;;;;;5063456;28;20106;-69
2024/01/30 01:06:28;;;;;;;20.40;10.93;;;6.20;99.90;;;;;;5056008;28;20493;-68
2024/01/30 01:08:54;;;;;;;24.30;11.80;;;6.20;99.90;;;;;;5042684;28;20043;-68
2024/01/30 01:11:22;;;;;;;26.03;11.87;;;6.20;99.90;;;;;;5062354;28;20405;-68
2024/01/30 01:13:47;;;;;;;20.88;11.43;;;6.20;99.90;;;;;;5061255;28;20481;-68
2024/01/30 01:16:13;;;;;;;24.25;11.68;;;6.20;99.90;;;;;;5064303;28;20049;-68
2024/01/30 01:18:39;;;;;;;19.30;10.77;;;6.10;99.90;;;;;;5059627;28;20044;-69
2024/01/30 01:21:05;;;;;;;21.17;10.20;;;6.20;99.90;;;;;;5062260;28;20044;-69
2024/01/30 01:23:30;;;;;;;20.13;11.77;;;6.10;99.90;;;;;;5061381;28;20032;-68
2024/01/30 01:25:56;;;;;;;19.20;10.10;;;6.10;99.90;;;;;;5056862;28;20460;-68
2024/01/30 01:28:22;;;;;;;22.13;10.87;;;6.10;99.90;;;;;;5058992;28;20044;-71
2024/01/30 01:30:50;;;;;;;22.43;12.23;;;6.10;99.90;;;;;;5057671;28;20044;-69
2024/01/30 01:33:16;;;;;;;18.67;10.60;;;6.20;99.90;;;;;;5059397;28;20300;-69
2024/01/30 01:35:41;;;;;;;22.30;11.53;;;6.20;99.90;;;;;;5063034;28;20040;-69
2024/01/30 01:38:07;;;;;;;22.10;10.63;;;6.20;99.90;;;;;;5061566;28;20041;-69
2024/01/30 01:40:33;;;;;;;21.40;10.33;;;6.20;99.90;;;;;;5063394;28;20140;-69
2024/01/30 01:42:58;;;;;;;20.53;10.77;;;6.20;99.90;;;;;;5069049;28;20040;-69
2024/01/30 01:45:26;;;;;;;19.40;10.93;;;6.20;99.90;;;;;;5059292;28;20091;-69
2024/01/30 01:47:52;;;;;;;19.80;11.45;;;6.20;99.90;;;;;;5061458;28;20045;-69
2024/01/30 01:50:19;;;;;;;26.40;10.77;;;6.20;99.90;;;;;;5055896;28;20044;-69
2024/01/30 01:52:50;;;;;;;19.95;10.85;;;6.20;99.90;;;;;;5044893;28;20456;-69
2024/01/30 01:55:18;;;;;;;17.17;10.45;;;6.20;99.90;;;;;;5061837;28;20102;-69
2024/01/30 01:57:44;;;;;;;20.35;11.25;;;6.20;99.90;;;;;;5057026;28;20067;-70
2024/01/30 02:00:11;;;;;;;22.70;10.05;;;6.20;99.90;;;;;;5059694;28;20420;-69
2024/01/30 02:02:43;;;;;;;18.73;10.65;;;6.20;99.90;;;;;;5047186;28;20044;-69
2024/01/30 02:05:09;;;;;;;22.13;11.50;;;6.30;99.90;;;;;;5063462;28;20076;-68
2024/01/30 02:07:35;;;;;;;18.53;10.13;;;6.30;99.90;;;;;;5052949;28;20076;-69
2024/01/30 02:10:00;;;;;;;22.00;11.23;;;6.30;99.90;;;;;;5048887;28;20045;-68
2024/01/30 02:12:26;;;;;;;19.83;10.63;;;6.30;99.90;;;;;;5062206;28;20048;-69
2024/01/30 02:14:51;;;;;;;19.87;10.97;;;6.30;99.90;;;;;;5058192;28;20508;-68
2024/01/30 02:17:17;;;;;;;22.33;10.83;;;6.30;99.90;;;;;;5055029;28;20124;-69
2024/01/30 02:19:43;;;;;;;19.27;11.07;;;6.30;99.90;;;;;;5056919;28;20045;-69
2024/01/30 02:22:09;;;;;;;24.10;11.73;;;6.40;99.90;;;;;;5058188;28;20060;-69
2024/01/30 02:24:35;;;;;;;22.02;11.15;;;6.40;99.90;;;;;;5067468;28;20039;-69
2024/01/30 02:27:00;;;;;;;21.23;11.07;;;6.40;99.90;;;;;;5066353;28;20041;-69
2024/01/30 02:29:26;;;;;;;24.20;11.03;;;6.40;99.90;;;;;;5064534;28;20051;-69
2024/01/30 02:31:52;;;;;;;21.47;10.93;;;6.50;99.90;;;;;;5057897;28;20429;-70
2024/01/30 02:34:19;;;;;;;19.55;10.40;;;6.50;99.90;;;;;;5060874;28;20080;-70
2024/01/30 02:36:48;;;;;;;18.80;10.55;;;6.50;99.90;;;;;;5069325;28;20049;-69
2024/01/30 02:39:13;;;;;;;21.02;10.95;;;6.50;99.90;;;;;;5058793;28;20515;-69
2024/01/30 02:41:39;;;;;;;22.73;10.80;;;6.50;99.90;;;;;;5058013;28;20116;-69
2024/01/30 02:44:07;;;;;;;21.10;11.95;;;6.50;99.90;;;;;;5059691;28;20465;-69
2024/01/30 02:46:33;;;;;;;20.13;11.47;;;6.60;99.90;;;;;;5041393;28;20097;-70
2024/01/30 02:48:59;;;;;;;22.97;10.97;;;6.50;99.90;;;;;;5056437;28;20140;-70
2024/01/30 02:51:24;;;;;;;19.07;10.87;;;6.50;99.90;;;;;;5038866;28;20413;-69
2024/01/30 02:53:50;;;;;;;20.97;11.33;;;6.50;99.90;;;;;;5038925;28;20044;-69
2024/01/30 02:56:15;;;;;;;19.70;10.73;;;6.50;99.90;;;;;;5056019;28;20052;-69
2024/01/30 02:58:41;;;;;;;20.93;11.57;;;6.60;99.90;;;;;;5064329;28;20068;-70
2024/01/30 03:01:07;;;;;;;20.70;11.50;;;6.60;99.90;;;;;;5067499;28;20041;-70
2024/01/30 03:03:35;;;;;;;22.13;11.15;;;6.60;99.90;;;;;;5056844;28;20300;-69
2024/01/30 03:06:00;;;;;;;23.70;12.02;;;6.60;99.90;;;;;;5057993;28;20059;-69
2024/01/30 03:08:26;;;;;;;18.90;10.77;;;6.60;99.90;;;;;;5058506;28;20136;-69
2024/01/30 03:10:51;;;;;;;19.87;11.47;;;6.50;99.90;;;;;;5053772;28;20493;-69
2024/01/30 03:13:17;;;;;;;21.53;10.93;;;6.50;99.90;;;;;;5058004;28;20075;-69
2024/01/30 03:15:43;;;;;;;16.90;10.60;;;6.50;99.90;;;;;;5058954;28;20057;-69
2024/01/30 03:18:08;;;;;;;17.40;10.47;;;6.50;99.90;;;;;;5054678;28;20102;-69
2024/01/30 03:20:34;;;;;;;22.63;11.53;;;6.50;99.90;;;;;;5063151;28;20159;-69
2024/01/30 03:23:00;;;;;;;21.70;10.77;;;6.50;99.90;;;;;;5060247;28;20048;-70
2024/01/30 03:25:26;;;;;;;21.48;10.88;;;6.50;99.90;;;;;;5042401;28;20052;-69
2024/01/30 03:27:51;;;;;;;16.70;9.60;;;6.50;99.90;;;;;;5064227;28;20040;-69
2024/01/30 03:30:17;;;;;;;19.53;10.73;;;6.50;99.90;;;;;;5057218;28;20091;-69
2024/01/30 03:32:43;;;;;;;18.65;10.30;;;6.50;99.90;;;;;;5062875;28;20032;-69
2024/01/30 03:35:09;;;;;;;18.98;10.43;;;6.50;99.90;;;;;;5056514;28;20126;-69
2024/01/30 03:37:35;;;;;;;21.55;10.18;;;6.50;99.90;;;;;;5063576;28;20461;-69
2024/01/30 03:40:02;;;;;;;18.87;9.80;;;6.50;99.90;;;;;;5064800;28;20051;-69
2024/01/30 03:42:27;;;;;;;18.98;10.93;;;6.50;99.90;;;;;;5064501;28;20045;-70
2024/01/30 03:44:53;;;;;;;23.43;10.83;;;6.50;99.90;;;;;;5062970;28;20064;-69
2024/01/30 03:47:20;;;;;;;21.13;10.90;;;6.50;99.90;;;;;;5059092;28;20036;-69
2024/01/30 03:49:48;;;;;;;20.42;10.95;;;6.50;99.90;;;;;;5061274;28;20277;-69
2024/01/30 03:52:13;;;;;;;20.33;10.47;;;6.50;99.90;;;;;;5062306;28;20079;-69
2024/01/30 03:54:42;;;;;;;24.80;11.33;;;6.60;99.90;;;;;;5060448;28;20032;-69
2024/01/30 03:57:08;;;;;;;17.48;10.20;;;6.60;99.90;;;;;;5062577;28;20421;-68
2024/01/30 03:59:33;;;;;;;17.60;10.40;;;6.50;99.90;;;;;;5055768;28;20041;-68
2024/01/30 04:01:59;;;;;;;17.67;9.90;;;6.60;99.90;;;;;;5044256;28;20052;-68
2024/01/30 04:04:25;;;;;;;18.60;9.93;;;6.60;99.90;;;;;;5056305;28;20064;-69
2024/01/30 04:06:51;;;;;;;19.07;10.07;;;6.60;99.90;;;;;;5063388;28;20119;-68
2024/01/30 04:09:16;;;;;;;20.10;10.93;;;6.60;99.90;;;;;;5060491;28;20048;-67
2024/01/30 04:11:42;;;;;;;19.20;10.43;;;6.60;99.90;;;;;;5042362;28;20471;-68
2024/01/30 04:14:08;;;;;;;16.95;10.15;;;6.60;99.90;;;;;;5063163;28;20044;-68
2024/01/30 04:16:36;;;;;;;24.42;11.32;;;6.60;99.90;;;;;;5045878;28;20040;-68
2024/01/30 04:19:02;;;;;;;22.38;10.23;;;6.60;99.90;;;;;;5057287;28;20052;-69
2024/01/30 04:21:27;;;;;;;19.20;10.47;;;6.60;99.90;;;;;;5059468;28;20502;-69
2024/01/30 04:23:53;;;;;;;17.07;9.63;;;6.60;99.90;;;;;;5062394;28;20455;-68
2024/01/30 04:26:19;;;;;;;17.70;8.80;;;6.60;99.90;;;;;;5062628;28;20044;-69
2024/01/30 04:28:48;;;;;;;17.60;9.60;;;6.60;99.90;;;;;;5053813;28;20040;-68
2024/01/30 04:31:13;;;;;;;19.63;10.18;;;6.60;99.90;;;;;;5054839;28;20099;-68
2024/01/30 04:33:39;;;;;;;16.33;9.13;;;6.60;99.90;;;;;;5054218;28;20477;-69
2024/01/30 04:36:08;;;;;;;19.43;9.70;;;6.70;99.90;;;;;;5062779;28;20049;-68
2024/01/30 04:38:34;;;;;;;17.63;10.02;;;6.70;99.90;;;;;;5060505;28;20033;-67
2024/01/30 04:41:00;;;;;;;20.53;10.80;;;6.70;99.90;;;;;;5043545;28;20033;-69
2024/01/30 04:43:26;;;;;;;21.23;10.03;;;6.80;99.90;;;;;;5066374;28;20431;-68
2024/01/30 04:45:52;;;;;;;23.08;11.05;;;6.80;99.90;;;;;;5064161;28;20051;-68
2024/01/30 04:48:17;;;;;;;16.40;9.47;;;6.80;99.90;;;;;;5057287;28;20057;-68
2024/01/30 04:50:43;;;;;;;17.03;9.57;;;6.80;99.90;;;;;;5060264;28;20120;-68
2024/01/30 04:53:08;;;;;;;19.63;10.03;;;6.80;99.90;;;;;;5068329;28;20086;-68
2024/01/30 04:55:36;;;;;;;16.27;9.90;;;6.80;99.90;;;;;;5063269;28;20033;-68
2024/01/30 04:58:02;;;;;;;17.38;9.55;;;6.80;99.90;;;;;;5044510;28;20520;-69
2024/01/30 05:00:28;;;;;;;16.13;9.43;;;6.90;99.90;;;;;;5058448;28;20028;-69
2024/01/30 05:02:56;;;;;;;16.43;9.50;;;6.90;99.90;;;;;;5061519;28;20045;-69
2024/01/30 05:05:21;;;;;;;17.60;9.77;;;6.90;99.90;;;;;;5058919;28;20401;-68
2024/01/30 05:07:50;;;;;;;19.10;8.60;;;6.90;99.90;;;;;;5039076;28;20053;-68
2024/01/30 05:10:15;;;;;;;13.43;8.07;;;6.90;99.90;;;;;;5039736;28;20052;-68
2024/01/30 05:12:44;;;;;;;14.90;9.52;;;6.90;99.90;;;;;;5057219;28;20040;-68
2024/01/30 05:15:09;;;;;;;17.43;8.90;;;6.90;99.90;;;;;;5056496;28;20048;-68
2024/01/30 05:17:35;;;;;;;21.17;9.17;;;6.90;99.90;;;;;;5062638;28;20446;-68
2024/01/30 05:20:00;;;;;;;18.53;8.83;;;6.90;99.90;;;;;;5061217;28;20142;-68
2024/01/30 05:22:26;;;;;;;14.87;8.37;;;7.00;99.90;;;;;;5061581;28;20411;-67
2024/01/30 05:24:54;;;;;;;17.70;9.03;;;7.00;99.90;;;;;;5059517;28;20046;-67
2024/01/30 05:27:20;;;;;;;15.65;8.23;;;7.10;99.90;;;;;;5058770;28;20143;-68
2024/01/30 05:29:45;;;;;;;14.37;8.57;;;7.10;99.90;;;;;;5061329;28;20353;-68
2024/01/30 05:32:11;;;;;;;19.93;8.70;;;7.10;99.90;;;;;;5062208;28;20040;-68
2024/01/30 05:34:37;;;;;;;13.67;8.37;;;7.10;99.90;;;;;;5060902;28;20040;-68
2024/01/30 05:37:03;;;;;;;13.10;7.67;;;7.10;99.90;;;;;;5057962;28;20161;-68
2024/01/30 05:39:29;;;;;;;13.88;7.40;;;7.20;99.90;;;;;;5055705;28;20037;-69
2024/01/30 05:41:55;;;;;;;15.38;8.90;;;7.20;99.90;;;;;;5061110;28;20101;-68
2024/01/30 05:44:20;;;;;;;15.07;8.70;;;7.30;99.90;;;;;;5061361;28;20072;-68
2024/01/30 05:46:46;;;;;;;16.37;7.33;;;7.30;99.90;;;;;;5061502;28;20033;-69
2024/01/30 05:49:11;;;;;;;15.70;8.43;;;7.30;99.90;;;;;;5058838;28;20504;-68
2024/01/30 05:51:37;;;;;;;14.53;8.47;;;7.40;99.90;;;;;;5052246;28;20039;-68
2024/01/30 05:54:04;;;;;;;14.60;8.20;;;7.30;99.90;;;;;;5058430;28;20460;-68
2024/01/30 05:56:29;;;;;;;19.02;8.50;;;7.40;99.90;;;;;;5057216;28;20079;-68
2024/01/30 05:58:55;;;;;;;16.17;8.60;;;7.40;99.90;;;;;;5063553;28;20488;-68
2024/01/30 06:01:21;;;;;;;14.37;8.70;;;7.40;99.90;;;;;;5061328;28;20040;-68
2024/01/30 06:03:46;;;;;;;17.23;8.30;;;7.50;99.90;;;;;;5063179;28;20040;-68
2024/01/30 06:06:15;;;;;;;14.83;8.77;;;7.50;99.90;;;;;;5061947;28;20041;-67
2024/01/30 06:08:43;;;;;;;15.00;9.15;;;7.50;99.90;;;;;;5060404;28;20451;-68
2024/01/30 06:11:11;;;;;;;16.38;7.90;;;7.50;99.90;;;;;;5058602;28;20033;-68
2024/01/30 06:13:37;;;;;;;28.90;9.60;;;7.60;99.90;;;;;;5056090;28;20073;-69
2024/01/30 06:16:03;;;;;;;14.83;9.30;;;7.60;99.90;;;;;;5058603;28;20072;-75
2024/01/30 06:18:30;;;;;;;17.60;8.80;;;7.50;99.90;;;;;;5051379;28;20059;-70
2024/01/30 06:20:56;;;;;;;13.85;8.10;;;7.60;99.90;;;;;;5060846;28;20102;-70
2024/01/30 06:23:21;;;;;;;16.97;8.87;;;7.60;99.90;;;;;;5061937;28;20044;-69
2024/01/30 06:25:47;;;;;;;18.00;8.93;;;7.60;99.90;;;;;;5059773;28;20040;-69
2024/01/30 06:28:12;;;;;;;15.60;9.23;;;7.70;99.90;;;;;;5050754;28;20624;-70
2024/01/30 06:30:40;;;;;;;17.13;8.93;;;7.70;99.90;;;;;;5060558;28;20223;-75
2024/01/30 06:33:11;;;;;;;14.93;8.30;;;7.70;99.90;;;;;;5052654;28;20033;-69
2024/01/30 06:35:39;;;;;;;15.93;9.18;;;7.70;99.90;;;;;;5059893;28;20517;-69
2024/01/30 06:38:05;;;;;;;19.20;9.60;;;7.80;99.90;;;;;;5058371;28;20040;-69
2024/01/30 06:40:30;;;;;;;16.37;8.90;;;7.80;99.90;;;;;;5064080;28;20041;-68
2024/01/30 06:42:56;;;;;;;17.00;8.93;;;7.80;99.90;;;;;;5057457;28;21687;-74
2024/01/30 06:45:22;;;;;;;14.73;8.10;;;7.80;99.90;;;;;;5037471;28;20036;-68
2024/01/30 06:47:47;;;;;;;13.90;7.85;;;7.80;99.90;;;;;;5060144;28;20043;-68
2024/01/30 06:50:15;;;;;;;14.67;8.40;;;7.80;99.90;;;;;;5042507;28;20047;-69
2024/01/30 06:52:41;;;;;;;20.48;8.65;;;7.80;99.90;;;;;;5049518;28;20036;-71
2024/01/30 06:55:10;;;;;;;17.23;8.57;;;7.80;99.90;;;;;;5054656;28;20445;-70
2024/01/30 06:57:35;;;;;;;16.42;8.90;;;7.80;99.90;;;;;;5058408;28;20043;-71
2024/01/30 07:00:01;;;;;;;18.50;8.43;;;7.80;99.90;;;;;;5056997;28;20349;-68
2024/01/30 07:02:27;;;;;;;16.57;8.10;;;7.80;99.90;;;;;;5062293;28;20400;-71
2024/01/30 07:04:54;;;;;;;13.77;8.27;;;7.80;99.90;;;;;;5056609;28;20294;-69
2024/01/30 07:07:22;;;;;;;15.75;7.65;;;7.80;99.90;;;;;;5053999;28;20277;-74
2024/01/30 07:09:51;;;;;;;14.35;8.30;;;7.80;99.90;;;;;;5062314;28;20448;-69
2024/01/30 07:12:17;;;;;;;13.60;8.05;;;7.80;99.90;;;;;;5061450;28;20094;-68
2024/01/30 07:14:43;;;;;;;19.43;8.77;;;7.80;99.90;;;;;;5063081;28;20040;-68
2024/01/30 07:17:12;;;;;;;13.93;7.47;;;7.80;99.90;;;;;;5056679;28;20041;-68
2024/01/30 07:19:38;;;;;;;12.45;7.38;;;7.90;99.90;;;;;;5046059;28;20512;-70
2024/01/30 07:22:04;;;;;;;16.87;7.70;;;8.00;99.90;;;;;;5042158;28;20120;-68
2024/01/30 07:24:30;;;;;;;15.18;8.20;;;7.90;99.90;;;;;;5046131;28;20320;-68
2024/01/30 07:26:55;;;;;;;17.63;8.40;;;8.00;99.90;;;;;;5061152;28;20076;-68
2024/01/30 07:29:24;;;;;;;14.85;7.70;;;8.00;99.90;;;;;;5042158;28;20138;-68
2024/01/30 07:31:50;;;;;;;16.67;7.73;;;8.00;99.90;;;;;;5062659;28;20045;-68
2024/01/30 07:34:15;;;;;;;12.68;7.65;;;8.00;99.90;;;;;;5063748;28;20057;-68
2024/01/30 07:36:41;;;;;;;15.50;7.83;;;8.00;99.90;;;;;;5063110;28;20349;-69
2024/01/30 07:39:07;;;;;;;17.00;7.82;;;8.10;99.90;;;;;;5063883;28;20045;-68
2024/01/30 07:41:33;;;;;;;17.30;8.23;;;8.00;99.90;;;;;;5056832;28;20485;-68
2024/01/30 07:43:58;;;;;;;14.50;7.80;;;8.10;99.90;;;;;;5062622;28;20301;-69
2024/01/30 07:46:24;;;;;;;18.30;8.07;;;8.10;99.90;;;;;;5055764;28;20284;-68
2024/01/30 07:48:53;;;;;;;14.33;8.03;;;8.10;99.90;;;;;;5058180;28;20044;-68
2024/01/30 07:51:18;;;;;;;15.43;7.72;;;8.10;99.90;;;;;;5060636;28;20079;-68
2024/01/30 07:53:44;;;;;;;16.40;7.93;;;8.10;99.90;;;;;;5043349;28;20037;-69
2024/01/30 07:56:10;;;;;;;13.00;7.13;;;8.20;99.90;;;;;;5059132;28;20041;-69
2024/01/30 07:58:37;;;;;;;14.90;7.73;;;8.20;99.90;;;;;;5066948;28;20037;-68
2024/01/30 08:01:03;;;;;;;12.07;7.65;;;8.20;99.90;;;;;;5054402;28;20343;-68
2024/01/30 08:03:28;;;;;;;12.37;7.07;;;8.20;99.90;;;;;;5063772;28;20120;-68
2024/01/30 08:05:55;;;;;;;15.80;7.43;;;8.20;99.90;;;;;;5063318;28;20423;-68
2024/01/30 08:08:20;;;;;;;13.68;7.32;;;8.20;99.90;;;;;;5047079;28;20044;-68
2024/01/30 08:10:46;;;;;;;17.57;8.33;;;8.30;99.90;;;;;;5061877;28;20051;-68
2024/01/30 08:13:12;;;;;;;12.63;6.97;;;8.30;99.90;;;;;;5058284;28;20037;-68
2024/01/30 08:15:37;;;;;;;14.73;8.03;;;8.30;99.90;;;;;;5069034;28;20040;-68
2024/01/30 08:18:04;;;;;;;14.43;6.90;;;8.30;99.90;;;;;;5060983;28;20527;-69
2024/01/30 08:20:30;;;;;;;;;;;8.30;99.90;;;;;;5047218;28;20131;-68
2024/01/30 08:22:55;;;;;;;13.23;6.95;;;8.30;99.90;;;;;;5060513;28;20011;-69
2024/01/30 08:25:21;;;;;;;11.73;6.93;;;8.30;99.90;;;;;;5065555;28;20045;-69
2024/01/30 08:27:47;;;;;;;13.77;8.05;;;8.30;99.90;;;;;;5063548;28;20154;-69
2024/01/30 08:30:13;;;;;;;11.37;7.00;;;8.40;99.90;;;;;;5045721;28;20045;-69
2024/01/30 08:32:39;;;;;;;15.93;7.18;;;8.30;99.90;;;;;;5043999;28;20040;-69
2024/01/30 08:35:05;;;;;;;12.85;7.40;;;8.30;99.90;;;;;;5066072;28;20052;-70
2024/01/30 08:37:31;;;;;;;21.30;8.15;;;8.40;99.90;;;;;;5058706;28;20492;-70
2024/01/30 08:39:56;;;;;;;13.97;6.83;;;8.40;99.90;;;;;;5064831;28;20109;-70
2024/01/30 08:42:22;;;;;;;11.90;6.85;;;8.40;99.90;;;;;;5060911;28;20289;-70
2024/01/30 08:44:51;;;;;;;13.40;7.38;;;8.50;99.90;;;;;;5058831;28;20071;-70
2024/01/30 08:47:17;;;;;;;11.63;6.80;;;8.50;99.90;;;;;;5065523;28;20047;-70
2024/01/30 08:49:44;;;;;;;14.27;7.47;;;8.50;99.90;;;;;;5061639;28;20041;-70
2024/01/30 08:52:10;;;;;;;15.95;7.35;;;8.60;99.90;;;;;;5054591;28;20090;-70
2024/01/30 08:54:36;;;;;;;17.50;7.82;;;8.50;99.90;;;;;;5054407;28;20053;-70
2024/01/30 08:57:02;;;;;;;12.50;7.75;;;8.60;99.90;;;;;;5059482;28;20044;-69
2024/01/30 08:59:28;;;;;;;13.57;7.05;;;8.60;99.90;;;;;;5061352;28;20036;-70
2024/01/30 09:01:55;;;;;;;19.08;7.85;;;8.70;99.90;;;;;;5056359;28;20132;-70
2024/01/30 09:04:21;;;;;;;13.95;7.35;;;8.70;99.90;;;;;;5065201;28;20115;-70
2024/01/30 09:06:47;;;;;;;;;;;8.80;99.90;;;;;;5059166;28;20045;-70
2024/01/30 09:09:14;;;;;;;13.32;6.95;;;8.80;99.90;;;;;;5063090;28;19923;-70
2024/01/30 09:11:40;;;;;;;18.63;8.60;;;8.80;99.90;;;;;;5050082;28;20036;-70
2024/01/30 09:14:06;;;;;;;13.75;7.88;;;8.90;99.90;;;;;;5060621;28;20492;-69
2024/01/30 09:16:31;;;;;;;13.65;7.20;;;8.90;99.90;;;;;;5056136;28;20122;-69
2024/01/30 09:18:57;;;;;;;14.13;7.27;;;8.90;99.90;;;;;;5064489;28;20044;-70
2024/01/30 09:21:23;;;;;;;14.10;7.60;;;9.00;99.90;;;;;;5043353;28;20282;-69
2024/01/30 09:23:49;;;;;;;21.10;8.27;;;8.90;99.90;;;;;;5045718;28;20403;-69
2024/01/30 09:26:14;;;;;;;18.00;8.70;;;9.00;99.90;;;;;;5054336;28;20044;-69
2024/01/30 09:28:42;;;;;;;14.70;7.63;;;9.00;99.90;;;;;;5058982;28;20507;-70
2024/01/30 09:31:12;;;;;;;15.57;7.93;;;9.00;99.90;;;;;;5059997;28;20088;-68
2024/01/30 09:33:38;;;;;;;15.60;7.07;;;9.10;99.90;;;;;;5056563;28;20051;-69
2024/01/30 09:36:06;;;;;;;17.00;7.40;;;9.10;99.90;;;;;;5063875;28;20048;-68
2024/01/30 09:38:31;;;;;;;16.83;7.38;;;9.10;99.90;;;;;;5065916;28;20040;-68
2024/01/30 09:41:03;;;;;;;12.53;7.30;;;9.10;99.90;;;;;;5063864;28;20459;-69
2024/01/30 09:43:34;;;;;;;14.32;7.10;;;9.20;99.90;;;;;;5065898;28;20745;-69
2024/01/30 09:46:03;;;;;;;14.25;7.65;;;9.20;99.90;;;;;;5041287;28;20379;-70
2024/01/30 09:48:30;;;;;;;14.73;8.10;;;9.20;99.90;;;;;;5060554;28;20397;-69
2024/01/30 09:50:57;;;;;;;14.20;6.97;;;9.20;99.90;;;;;;5064805;28;20086;-71
2024/01/30 09:53:23;;;;;;;15.73;8.18;;;9.20;99.90;;;;;;5057527;28;20032;-69
2024/01/30 09:55:50;;;;;;;11.40;6.85;;;9.30;99.90;;;;;;5042827;28;20147;-69
2024/01/30 09:58:16;;;;;;;14.43;6.78;;;9.20;99.90;;;;;;5053938;28;20067;-70
2024/01/30 10:00:42;;;;;;;13.50;7.63;;;9.30;99.90;;;;;;5061909;28;20036;-69
2024/01/30 10:03:09;;;;;;;16.17;8.27;;;9.30;99.90;;;;;;5054421;28;20493;-69
2024/01/30 10:05:37;;;;;;;18.77;8.02;;;9.30;99.90;;;;;;5060310;28;20090;-69
2024/01/30 10:08:09;;;;;;;15.73;6.90;;;9.30;99.90;;;;;;5058181;28;20063;-69
2024/01/30 10:10:35;;;;;;;18.80;7.82;;;9.20;99.90;;;;;;5054312;28;20044;-69
2024/01/30 10:13:01;;;;;;;;;;;9.30;99.90;;;;;;5055567;28;20128;-70
2024/01/30 10:15:28;;;;;;;12.63;6.43;;;9.40;99.90;;;;;;5054449;28;20015;-69
2024/01/30 10:17:54;;;;;;;19.85;8.15;;;9.30;99.90;;;;;;5057768;28;20517;-69
2024/01/30 10:20:22;;;;;;;11.98;7.13;;;9.30;99.90;;;;;;5055429;28;20192;-69
2024/01/30 10:22:49;;;;;;;17.55;7.93;;;9.40;99.90;;;;;;5056979;28;20075;-69
2024/01/30 10:25:15;;;;;;;13.15;7.32;;;9.40;99.90;;;;;;5056895;28;20040;-68
2024/01/30 10:27:41;;;;;;;13.52;7.30;;;9.50;99.90;;;;;;5062612;28;20108;-69
2024/01/30 10:30:08;;;;;;;17.87;7.23;;;9.50;99.90;;;;;;5059203;28;20048;-69
2024/01/30 10:32:33;;;;;;;;;;;9.60;99.90;;;;;;5025882;28;20266;-69
2024/01/30 10:34:59;;;;;;;13.15;6.25;;;9.80;99.90;;;;;;5055802;28;19920;-69
2024/01/30 10:37:26;;;;;;;10.85;5.85;;;9.90;99.90;;;;;;5050842;28;20042;-69
2024/01/30 10:39:53;;;;;;;;;;;10.00;99.90;;;;;;5061002;28;20048;-69
2024/01/30 10:42:19;;;;;;;17.52;7.82;;;10.10;99.90;;;;;;5054371;28;19916;-69
2024/01/30 10:45:15;;;;;;;9.93;5.93;;;10.10;99.90;;;;;;5058094;28;20047;-69
2024/01/30 10:47:48;;;;;;;13.95;6.72;;;10.20;99.90;;;;;;5061343;28;20028;-69
2024/01/30 10:50:15;;;;;;;11.82;5.95;;;10.20;99.90;;;;;;5063353;28;20151;-69
2024/01/30 10:52:44;;;;;;;21.77;6.43;;;10.20;99.90;;;;;;5052770;28;20484;-69
2024/01/30 10:55:10;;;;;;;15.77;5.53;;;10.10;99.90;;;;;;5040934;28;20048;-70
2024/01/30 10:57:36;;;;;;;12.05;5.45;;;10.10;99.90;;;;;;5047041;28;20193;-69
2024/01/30 11:00:11;;;;;;;10.65;5.38;;;10.10;99.90;;;;;;5062002;28;20374;-69
2024/01/30 11:02:43;;;;;;;18.80;6.10;;;10.10;99.90;;;;;;5062978;28;20500;-69
2024/01/30 11:05:09;;;;;;;13.82;5.20;;;10.10;99.90;;;;;;5062195;28;20037;-69
2024/01/30 11:07:35;;;;;;;13.27;5.28;;;10.00;99.90;;;;;;5052164;28;20055;-69
2024/01/30 11:10:03;;;;;;;15.05;4.78;;;10.00;99.90;;;;;;5068521;28;20570;-69
2024/01/30 11:12:33;;;;;;;10.48;4.75;;;10.00;99.90;;;;;;5062575;28;20109;-69
2024/01/30 11:15:06;;;;;;;9.02;3.50;;;9.90;99.90;;;;;;5053229;28;20044;-69
2024/01/30 11:17:48;;;;;;;17.33;3.60;;;10.00;99.90;;;;;;5059832;28;20040;-69
2024/01/30 11:20:31;;;;;;;12.77;2.85;;;9.90;99.90;;;;;;5057570;28;20044;-69
2024/01/30 11:22:57;;;;;;;7.47;2.40;;;9.90;99.90;;;;;;5060883;28;20185;-69
2024/01/30 11:25:24;;;;;;;7.93;2.42;;;9.90;99.90;;;;;;5061439;28;20045;-69
2024/01/30 11:27:55;;;;;;;6.68;2.55;;;9.90;99.90;;;;;;5039410;28;20178;-69
2024/01/30 11:30:28;;;;;;;8.90;1.65;;;10.00;99.90;;;;;;5059089;28;20043;-69
2024/01/30 11:33:08;;;;;;;5.50;1.67;;;9.90;99.90;;;;;;5061336;28;20036;-69
2024/01/30 11:35:41;;;;;;;2.33;1.10;;;9.90;99.90;;;;;;5043985;28;20162;-69
2024/01/30 11:38:08;;;;;;;3.63;1.83;;;9.80;99.90;;;;;;5051858;28;20048;-68
2024/01/30 11:40:35;;;;;;;4.65;0.98;;;9.80;99.90;;;;;;5066350;28;20037;-69
2024/01/30 11:43:04;;;;;;;4.80;1.17;;;9.70;99.90;;;;;;5062574;28;20119;-69
2024/01/30 11:45:31;;;;;;;3.80;1.13;;;9.70;99.90;;;;;;5060319;28;20044;-69
2024/01/30 11:47:57;;;;;;;;;;;9.60;99.90;;;;;;5060726;28;20071;-69
2024/01/30 11:50:23;;;;;;;3.03;1.02;;;9.60;99.90;;;;;;5063233;28;19924;-69
2024/01/30 11:52:49;;;;;;;3.20;0.80;;;9.60;99.90;;;;;;5059374;28;20040;-69
2024/01/30 11:55:15;;;;;;;4.55;1.45;;;9.60;99.90;;;;;;5060434;28;20095;-70
2024/01/30 11:57:41;;;;;;;4.13;1.10;;;9.60;99.90;;;;;;5048932;28;20115;-69
2024/01/30 12:00:15;;;;;;;2.65;0.90;;;9.50;99.90;;;;;;5062340;28;20052;-69
2024/01/30 12:02:41;;;;;;;3.10;0.90;;;9.50;99.90;;;;;;5063440;28;20036;-69
2024/01/30 12:05:07;;;;;;;4.07;0.98;;;9.50;99.90;;;;;;5063725;28;20047;-69
2024/01/30 12:07:33;;;;;;;2.55;1.10;;;9.40;99.90;;;;;;5064482;28;20046;-69
2024/01/30 12:09:59;;;;;;;5.60;0.88;;;9.50;99.90;;;;;;5059142;28;20032;-69
2024/01/30 12:12:26;;;;;;;5.00;1.13;;;9.50;99.90;;;;;;5060360;28;20041;-69
2024/01/30 12:14:52;;;;;;;5.95;1.60;;;9.50;99.90;;;;;;5065377;28;20473;-68
2024/01/30 12:17:28;;;;;;;6.00;0.82;;;9.50;99.90;;;;;;5060878;28;20492;-69
2024/01/30 12:20:04;;;;;;;4.13;0.75;;;9.50;99.90;;;;;;5063177;28;20074;-68
2024/01/30 12:22:30;;;;;;;3.13;0.80;;;9.50;99.90;;;;;;5060522;28;20124;-68
2024/01/30 12:24:56;;;;;;;6.28;1.17;;;9.50;99.90;;;;;;5060574;28;20044;-68
2024/01/30 12:27:21;;;;;;;7.25;1.30;;;9.50;99.90;;;;;;5052653;28;20064;-69
2024/01/30 12:29:47;;;;;;;2.53;1.02;;;9.60;99.90;;;;;;5058848;28;20136;-69
2024/01/30 12:32:16;;;;;;;2.90;0.80;;;9.60;99.90;;;;;;5061035;28;20045;-69
2024/01/30 12:34:42;;;;;;;4.93;0.88;;;9.70;99.90;;;;;;5059789;28;20774;-69
2024/01/30 12:37:09;;;;;;;2.60;1.30;;;9.70;99.90;;;;;;5059022;28;20040;-69
2024/01/30 12:39:35;;;;;;;2.95;0.82;;;9.70;99.90;;;;;;5044310;28;20037;-69
2024/01/30 12:42:01;;;;;;;3.05;1.33;;;9.80;99.90;;;;;;5063145;28;20086;-69